M/V Donald Wood — WDH7537 — position and weather

sailwx.info

Track history (hours):
 
Tides and Currents Weather Stations Pressure Air Temp Water Temp Dewpoint Dewpoint Depression Visibility Wind Speed Wind Dir Waves Ship Positions

M/V Donald Wood

Owner: Wood Towing, LLC., Avondale, LA. More information available from US FCC via Universal Licensing System.

Last reported at 2017-Nov-19 07:40 UTC. Time now 2017-Nov-21 19:04 UTC.
Position N 29°50' W 091°57'.

Length 23 m; draft 2.6 m.

Type: Towing. MMSI: 367649170.

Date/timePositionNaut miles runAvg speedWind from/ knotsBaromVisibWave heightAir tempDewpointWater temp
2017-Nov-19 07:40N 29°50' W 091°57'1 4.5
2017-Nov-19 07:30N 29°50' W 091°58'2 4.2
2017-Nov-19 07:00N 29°50' W 092°00'2 4.4
2017-Nov-19 06:30N 29°49' W 092°03'2 4.0
2017-Nov-19 06:00N 29°48' W 092°05'2 4.2
2017-Nov-19 05:30N 29°47' W 092°07'2 4.6
2017-Nov-19 05:00N 29°47' W 092°09'1 2.1
2017-Nov-19 04:30N 29°47' W 092°11'1 2.4
2017-Nov-19 04:00N 29°47' W 092°12'1 2.0
2017-Nov-19 03:30N 29°47' W 092°13'1 1.8
2017-Nov-19 03:00N 29°48' W 092°14'0 0.0
2017-Nov-19 02:30N 29°48' W 092°14'1 1.1
2017-Nov-19 02:00N 29°48' W 092°15'2 4.7
2017-Nov-19 01:30N 29°49' W 092°17'2 4.3
2017-Nov-19 01:00N 29°50' W 092°19'2 4.5
2017-Nov-19 00:29N 29°51' W 092°22'35 4.2
2017-Nov-18 16:08N 29°56' W 093°02'1 4.9
2017-Nov-18 16:00N 29°56' W 093°03'2 4.8
2017-Nov-18 15:30N 29°56' W 093°05'2 4.7
2017-Nov-18 15:00N 29°56' W 093°08'2 4.3
2017-Nov-18 14:30N 29°57' W 093°10'2 4.9
2017-Nov-18 14:00N 29°59' W 093°12'2 4.7
2017-Nov-18 13:30N 30°01' W 093°14'1 2.5
2017-Nov-18 13:00N 30°02' W 093°14'2 4.4
2017-Nov-18 12:30N 30°04' W 093°16'2 4.7
2017-Nov-18 12:00N 30°05' W 093°18'0 0.4
2017-Nov-18 11:30N 30°05' W 093°18'1 1.5
2017-Nov-18 11:00N 30°06' W 093°18'0 0.2
2017-Nov-18 10:30N 30°06' W 093°18'0 0.1
2017-Nov-18 10:00N 30°06' W 093°18'0 0.0
2017-Nov-18 09:30N 30°06' W 093°18'0 0.0
2017-Nov-18 09:00N 30°06' W 093°18'0 0.0
2017-Nov-18 08:30N 30°06' W 093°18'0 0.0
2017-Nov-18 08:00N 30°06' W 093°18'0 0.1
2017-Nov-18 07:30N 30°06' W 093°18'0 0.0
2017-Nov-18 07:00N 30°06' W 093°18'0 0.1
2017-Nov-18 06:30N 30°06' W 093°18'1 1.3
2017-Nov-18 06:00N 30°06' W 093°19'1 2.3
2017-Nov-18 05:30N 30°05' W 093°20'2 3.7
2017-Nov-18 05:00N 30°04' W 093°21'1 2.5
2017-Nov-18 04:30N 30°04' W 093°23'2 4.7
2017-Nov-18 04:00N 30°04' W 093°25'2 4.8
2017-Nov-18 03:30N 30°04' W 093°28'2 4.8
2017-Nov-18 03:00N 30°04' W 093°31'78 3.6
2017-Nov-17 05:13N 29°31' W 094°53'1 6.0
2017-Nov-17 05:00N 29°32' W 094°54'3 6.1
2017-Nov-17 04:30N 29°34' W 094°56'3 6.0
2017-Nov-17 04:00N 29°37' W 094°57'3 6.0
2017-Nov-17 03:30N 29°40' W 094°59'3 5.6
2017-Nov-17 03:00N 29°42' W 095°01'3 5.1
2017-Nov-17 02:28N 29°44' W 095°03'3 3.2
2017-Nov-17 01:29N 29°46' W 095°06'3 1.0
2017-Nov-16 22:48N 29°47' W 095°04'0 0.0
2017-Nov-16 20:14N 29°47' W 095°04'0 0.0
2017-Nov-16 19:57N 29°47' W 095°04'0 0.0
2017-Nov-16 19:28N 29°47' W 095°04'0 0.0
2017-Nov-16 18:55N 29°47' W 095°04'0 0.0
2017-Nov-16 18:13N 29°47' W 095°04'0 0.0
2017-Nov-16 17:53N 29°47' W 095°04'0 0.0
2017-Nov-16 17:29N 29°47' W 095°04'0 0.0
2017-Nov-16 16:57N 29°47' W 095°04'0 0.0
2017-Nov-16 14:49N 29°47' W 095°04'0 0.0
2017-Nov-16 12:47N 29°47' W 095°04'0 0.0
2017-Nov-16 11:19N 29°47' W 095°04'0 0.0
2017-Nov-16 10:57N 29°47' W 095°04'0 0.0
2017-Nov-16 10:25N 29°47' W 095°04'0 0.0
2017-Nov-16 09:53N 29°47' W 095°04'0 0.0
2017-Nov-16 09:29N 29°47' W 095°04'0 0.0
2017-Nov-16 08:47N 29°47' W 095°04'0 0.0
2017-Nov-16 08:28N 29°47' W 095°04'0 0.0
2017-Nov-16 07:56N 29°47' W 095°04'0 0.0
2017-Nov-16 07:18N 29°47' W 095°04'0 0.0
2017-Nov-16 06:56N 29°47' W 095°04'0 0.0
2017-Nov-16 06:30N 29°47' W 095°04'0 0.0
2017-Nov-16 05:54N 29°47' W 095°04'0 0.0
2017-Nov-16 05:24N 29°47' W 095°04'0 0.0
2017-Nov-16 04:35N 29°47' W 095°04'0 0.0
2017-Nov-16 04:31N 29°47' W 095°04'0 0.0
2017-Nov-16 03:28N 29°47' W 095°04'0 0.0
2017-Nov-16 03:00N 29°47' W 095°04'0 0.0
2017-Nov-15 23:49N 29°47' W 095°04'0 0.0
2017-Nov-15 22:03N 29°47' W 095°04'0 0.0
2017-Nov-15 21:36N 29°47' W 095°04'0 0.0
2017-Nov-15 21:26N 29°47' W 095°04'0 0.0
2017-Nov-15 20:59N 29°47' W 095°04'0 0.0
2017-Nov-15 20:15N 29°47' W 095°04'3 0.2
2017-Nov-15 06:37N 29°46' W 095°06'0 0.4
2017-Nov-15 06:30N 29°46' W 095°06'0 0.0
2017-Nov-15 04:54N 29°46' W 095°06'0 0.0
2017-Nov-15 04:27N 29°46' W 095°06'0 0.0
2017-Nov-15 03:56N 29°46' W 095°06'0 0.0
2017-Nov-15 03:02N 29°46' W 095°06'1 0.5
2017-Nov-15 01:23N 29°46' W 095°05'2 4.8
2017-Nov-15 01:00N 29°45' W 095°04'3 5.3
2017-Nov-15 00:30N 29°43' W 095°01'2 4.8
2017-Nov-15 00:00N 29°41' W 094°59'3 6.0
2017-Nov-14 23:30N 29°39' W 094°58'3 6.3
2017-Nov-14 23:00N 29°36' W 094°57'3 6.8
2017-Nov-14 22:30N 29°33' W 094°54'  
2017-Nov-12 16:30N 29°53' W 092°25'3 3.7
2017-Nov-12 15:50N 29°52' W 092°22'1 3.6
2017-Nov-12 15:30N 29°51' W 092°22'2 3.7
2017-Nov-12 15:00N 29°50' W 092°20'2 3.6
2017-Nov-12 14:28N 29°50' W 092°18'2 3.7
2017-Nov-12 13:56N 29°48' W 092°16'2 4.1
2017-Nov-12 13:28N 29°48' W 092°14'1 2.9
2017-Nov-12 13:00N 29°47' W 092°12'1 2.2
2017-Nov-12 12:30N 29°47' W 092°11'0 0.3
2017-Nov-12 11:54N 29°47' W 092°11'0 0.0
2017-Nov-12 10:43N 29°47' W 092°11'0 0.0
2017-Nov-12 10:29N 29°47' W 092°11'0 0.0
2017-Nov-12 10:00N 29°47' W 092°11'0 0.0
2017-Nov-12 09:29N 29°47' W 092°11'0 0.7
2017-Nov-12 08:59N 29°47' W 092°11'2 3.0
2017-Nov-12 08:29N 29°47' W 092°09'69 2.1
2017-Nov-10 23:56N 29°32' W 090°51'2 4.6
2017-Nov-10 23:30N 29°32' W 090°49'2 4.4
2017-Nov-10 23:00N 29°32' W 090°46'2 3.8
2017-Nov-10 22:30N 29°34' W 090°45'2 3.7
2017-Nov-10 22:00N 29°34' W 090°43'2 3.1
2017-Nov-10 21:30N 29°36' W 090°43'1 2.4
2017-Nov-10 21:00N 29°37' W 090°42'0 0.0
2017-Nov-10 20:30N 29°37' W 090°42'0 0.0
2017-Nov-10 20:00N 29°37' W 090°42'0 0.0
2017-Nov-10 19:30N 29°37' W 090°42'0 0.0
2017-Nov-10 19:00N 29°37' W 090°42'1 2.0
2017-Nov-10 18:30N 29°36' W 090°41'2 3.6
2017-Nov-10 18:00N 29°35' W 090°39'2 3.9
2017-Nov-10 17:27N 29°35' W 090°36'2 3.6
2017-Nov-10 16:59N 29°34' W 090°34'3 4.1
2017-Nov-10 16:14N 29°34' W 090°31'1 4.3
2017-Nov-10 15:56N 29°34' W 090°30'  
Track history (hours):
 
Tides and Currents Weather Stations Pressure Air Temp Water Temp Dewpoint Dewpoint Depression Visibility Wind Speed Wind Dir Waves Ship Positions

M/V Donald Wood

Owner: Wood Towing, LLC., Avondale, LA. More information available from US FCC via Universal Licensing System.

Last reported at 2017-Nov-19 07:40 UTC. Time now 2017-Nov-21 19:04 UTC.
Position N 29°50' W 091°57'.

Length 23 m; draft 2.6 m.

Type: Towing. MMSI: 367649170.

Date/timePositionNaut miles runAvg speedWind from/ knotsBaromVisibWave heightAir tempDewpointWater temp
2017-Nov-19 07:40N 29°50' W 091°57'1 4.5
2017-Nov-19 07:30N 29°50' W 091°58'2 4.2
2017-Nov-19 07:00N 29°50' W 092°00'2 4.4
2017-Nov-19 06:30N 29°49' W 092°03'2 4.0
2017-Nov-19 06:00N 29°48' W 092°05'2 4.2
2017-Nov-19 05:30N 29°47' W 092°07'2 4.6
2017-Nov-19 05:00N 29°47' W 092°09'1 2.1
2017-Nov-19 04:30N 29°47' W 092°11'1 2.4
2017-Nov-19 04:00N 29°47' W 092°12'1 2.0
2017-Nov-19 03:30N 29°47' W 092°13'1 1.8
2017-Nov-19 03:00N 29°48' W 092°14'0 0.0
2017-Nov-19 02:30N 29°48' W 092°14'1 1.1
2017-Nov-19 02:00N 29°48' W 092°15'2 4.7
2017-Nov-19 01:30N 29°49' W 092°17'2 4.3
2017-Nov-19 01:00N 29°50' W 092°19'2 4.5
2017-Nov-19 00:29N 29°51' W 092°22'35 4.2
2017-Nov-18 16:08N 29°56' W 093°02'1 4.9
2017-Nov-18 16:00N 29°56' W 093°03'2 4.8
2017-Nov-18 15:30N 29°56' W 093°05'2 4.7
2017-Nov-18 15:00N 29°56' W 093°08'2 4.3
2017-Nov-18 14:30N 29°57' W 093°10'2 4.9
2017-Nov-18 14:00N 29°59' W 093°12'2 4.7
2017-Nov-18 13:30N 30°01' W 093°14'1 2.5
2017-Nov-18 13:00N 30°02' W 093°14'2 4.4
2017-Nov-18 12:30N 30°04' W 093°16'2 4.7
2017-Nov-18 12:00N 30°05' W 093°18'0 0.4
2017-Nov-18 11:30N 30°05' W 093°18'1 1.5
2017-Nov-18 11:00N 30°06' W 093°18'0 0.2
2017-Nov-18 10:30N 30°06' W 093°18'0 0.1
2017-Nov-18 10:00N 30°06' W 093°18'0 0.0
2017-Nov-18 09:30N 30°06' W 093°18'0 0.0
2017-Nov-18 09:00N 30°06' W 093°18'0 0.0
2017-Nov-18 08:30N 30°06' W 093°18'0 0.0
2017-Nov-18 08:00N 30°06' W 093°18'0 0.1
2017-Nov-18 07:30N 30°06' W 093°18'0 0.0
2017-Nov-18 07:00N 30°06' W 093°18'0 0.1
2017-Nov-18 06:30N 30°06' W 093°18'1 1.3
2017-Nov-18 06:00N 30°06' W 093°19'1 2.3
2017-Nov-18 05:30N 30°05' W 093°20'2 3.7
2017-Nov-18 05:00N 30°04' W 093°21'1 2.5
2017-Nov-18 04:30N 30°04' W 093°23'2 4.7
2017-Nov-18 04:00N 30°04' W 093°25'2 4.8
2017-Nov-18 03:30N 30°04' W 093°28'2 4.8
2017-Nov-18 03:00N 30°04' W 093°31'78 3.6
2017-Nov-17 05:13N 29°31' W 094°53'1 6.0
2017-Nov-17 05:00N 29°32' W 094°54'3 6.1
2017-Nov-17 04:30N 29°34' W 094°56'3 6.0
2017-Nov-17 04:00N 29°37' W 094°57'3 6.0
2017-Nov-17 03:30N 29°40' W 094°59'3 5.6
2017-Nov-17 03:00N 29°42' W 095°01'3 5.1
2017-Nov-17 02:28N 29°44' W 095°03'3 3.2
2017-Nov-17 01:29N 29°46' W 095°06'3 1.0
2017-Nov-16 22:48N 29°47' W 095°04'0 0.0
2017-Nov-16 20:14N 29°47' W 095°04'0 0.0
2017-Nov-16 19:57N 29°47' W 095°04'0 0.0
2017-Nov-16 19:28N 29°47' W 095°04'0 0.0
2017-Nov-16 18:55N 29°47' W 095°04'0 0.0
2017-Nov-16 18:13N 29°47' W 095°04'0 0.0
2017-Nov-16 17:53N 29°47' W 095°04'0 0.0
2017-Nov-16 17:29N 29°47' W 095°04'0 0.0
2017-Nov-16 16:57N 29°47' W 095°04'0 0.0
2017-Nov-16 14:49N 29°47' W 095°04'0 0.0
2017-Nov-16 12:47N 29°47' W 095°04'0 0.0
2017-Nov-16 11:19N 29°47' W 095°04'0 0.0
2017-Nov-16 10:57N 29°47' W 095°04'0 0.0
2017-Nov-16 10:25N 29°47' W 095°04'0 0.0
2017-Nov-16 09:53N 29°47' W 095°04'0 0.0
2017-Nov-16 09:29N 29°47' W 095°04'0 0.0
2017-Nov-16 08:47N 29°47' W 095°04'0 0.0
2017-Nov-16 08:28N 29°47' W 095°04'0 0.0
2017-Nov-16 07:56N 29°47' W 095°04'0 0.0
2017-Nov-16 07:18N 29°47' W 095°04'0 0.0
2017-Nov-16 06:56N 29°47' W 095°04'0 0.0
2017-Nov-16 06:30N 29°47' W 095°04'0 0.0
2017-Nov-16 05:54N 29°47' W 095°04'0 0.0
2017-Nov-16 05:24N 29°47' W 095°04'0 0.0
2017-Nov-16 04:35N 29°47' W 095°04'0 0.0
2017-Nov-16 04:31N 29°47' W 095°04'0 0.0
2017-Nov-16 03:28N 29°47' W 095°04'0 0.0
2017-Nov-16 03:00N 29°47' W 095°04'0 0.0
2017-Nov-15 23:49N 29°47' W 095°04'0 0.0
2017-Nov-15 22:03N 29°47' W 095°04'0 0.0
2017-Nov-15 21:36N 29°47' W 095°04'0 0.0
2017-Nov-15 21:26N 29°47' W 095°04'0 0.0
2017-Nov-15 20:59N 29°47' W 095°04'0 0.0
2017-Nov-15 20:15N 29°47' W 095°04'3 0.2
2017-Nov-15 06:37N 29°46' W 095°06'0 0.4
2017-Nov-15 06:30N 29°46' W 095°06'0 0.0
2017-Nov-15 04:54N 29°46' W 095°06'0 0.0
2017-Nov-15 04:27N 29°46' W 095°06'0 0.0
2017-Nov-15 03:56N 29°46' W 095°06'0 0.0
2017-Nov-15 03:02N 29°46' W 095°06'1 0.5
2017-Nov-15 01:23N 29°46' W 095°05'2 4.8
2017-Nov-15 01:00N 29°45' W 095°04'3 5.3
2017-Nov-15 00:30N 29°43' W 095°01'2 4.8
2017-Nov-15 00:00N 29°41' W 094°59'3 6.0
2017-Nov-14 23:30N 29°39' W 094°58'3 6.3
2017-Nov-14 23:00N 29°36' W 094°57'3 6.8
2017-Nov-14 22:30N 29°33' W 094°54'  
2017-Nov-12 16:30N 29°53' W 092°25'3 3.7
2017-Nov-12 15:50N 29°52' W 092°22'1 3.6
2017-Nov-12 15:30N 29°51' W 092°22'2 3.7
2017-Nov-12 15:00N 29°50' W 092°20'2 3.6
2017-Nov-12 14:28N 29°50' W 092°18'2 3.7
2017-Nov-12 13:56N 29°48' W 092°16'2 4.1
2017-Nov-12 13:28N 29°48' W 092°14'1 2.9
2017-Nov-12 13:00N 29°47' W 092°12'1 2.2
2017-Nov-12 12:30N 29°47' W 092°11'0 0.3
2017-Nov-12 11:54N 29°47' W 092°11'0 0.0
2017-Nov-12 10:43N 29°47' W 092°11'0 0.0
2017-Nov-12 10:29N 29°47' W 092°11'0 0.0
2017-Nov-12 10:00N 29°47' W 092°11'0 0.0
2017-Nov-12 09:29N 29°47' W 092°11'0 0.7
2017-Nov-12 08:59N 29°47' W 092°11'2 3.0
2017-Nov-12 08:29N 29°47' W 092°09'69 2.1
2017-Nov-10 23:56N 29°32' W 090°51'2 4.6
2017-Nov-10 23:30N 29°32' W 090°49'2 4.4
2017-Nov-10 23:00N 29°32' W 090°46'2 3.8
2017-Nov-10 22:30N 29°34' W 090°45'2 3.7
2017-Nov-10 22:00N 29°34' W 090°43'2 3.1
2017-Nov-10 21:30N 29°36' W 090°43'1 2.4
2017-Nov-10 21:00N 29°37' W 090°42'0 0.0
2017-Nov-10 20:30N 29°37' W 090°42'0 0.0
2017-Nov-10 20:00N 29°37' W 090°42'0 0.0
2017-Nov-10 19:30N 29°37' W 090°42'0 0.0
2017-Nov-10 19:00N 29°37' W 090°42'1 2.0
2017-Nov-10 18:30N 29°36' W 090°41'2 3.6
2017-Nov-10 18:00N 29°35' W 090°39'2 3.9
2017-Nov-10 17:27N 29°35' W 090°36'2 3.6
2017-Nov-10 16:59N 29°34' W 090°34'3 4.1
2017-Nov-10 16:14N 29°34' W 090°31'1 4.3
2017-Nov-10 15:56N 29°34' W 090°30'  

Dump ship's entire track history